Time;durP1;ratioP1;P1;durP2;ratioP2;P2;SDS_P1;SDS_P2;PMS_P1;PMS_P2;Temp;Humidity;BMP_temperature;BMP_pressure;BME280_temperature;BME280_humidity;BME280_pressure;Samples;Min_cycle;Max_cycle;Signal;HPM_P1;HPM_P2
2023/10/04 00:01:16;;;;;;;1.30;1.20;;;;;;;;;;5067546;28;20264;-42
2023/10/04 00:03:43;;;;;;;1.63;1.13;;;;;;;;;;5065396;28;20266;-46
2023/10/04 00:06:10;;;;;;;2.97;1.13;;;;;;;;;;5065017;28;20603;-43
2023/10/04 00:08:39;;;;;;;2.37;1.23;;;;;;;;;;5067894;28;20221;-43
2023/10/04 00:11:06;;;;;;;1.70;1.13;;;;;;;;;;5062578;28;20335;-42
2023/10/04 00:13:36;;;;;;;1.77;1.40;;;;;;;;;;5066356;28;20215;-46
2023/10/04 00:16:03;;;;;;;1.33;1.20;;;;;;;;;;5067073;28;20271;-40
2023/10/04 00:18:31;;;;;;;1.83;0.90;;;;;;;;;;5068109;28;20201;-45
2023/10/04 00:20:58;;;;;;;1.10;1.00;;;;;;;;;;5065044;28;20222;-44
2023/10/04 00:23:25;;;;;;;2.37;1.30;;;;;;;;;;5064153;28;20296;-43
2023/10/04 00:25:54;;;;;;;0.83;0.83;;;;;;;;;;5061244;28;20232;-42
2023/10/04 00:28:21;;;;;;;1.20;1.00;;;;;;;;;;5060401;28;20237;-44
2023/10/04 00:30:48;;;;;;;1.10;1.00;;;;;;;;;;5060719;28;20252;-41
2023/10/04 00:33:15;;;;;;;1.47;1.10;;;;;;;;;;5067726;28;20304;-38
2023/10/04 00:35:42;;;;;;;1.60;1.30;;;;;;;;;;5061544;28;20205;-42
2023/10/04 00:38:14;;;;;;;3.37;1.20;;;;;;;;;;5054969;28;20201;-41
2023/10/04 00:40:41;;;;;;;2.37;1.27;;;;;;;;;;5061925;28;20233;-40
2023/10/04 00:43:13;;;;;;;4.50;1.53;;;;;;;;;;5062024;28;20204;-42
2023/10/04 00:45:41;;;;;;;1.37;1.10;;;;;;;;;;5068156;28;20824;-41
2023/10/04 00:48:11;;;;;;;1.47;1.13;;;;;;;;;;5067685;28;20227;-43
2023/10/04 00:50:39;;;;;;;3.77;1.60;;;;;;;;;;5070916;28;20225;-39
2023/10/04 00:53:07;;;;;;;1.20;1.10;;;;;;;;;;5061959;28;20434;-40
2023/10/04 00:55:37;;;;;;;1.00;1.00;;;;;;;;;;5065369;28;20205;-38
2023/10/04 00:58:06;;;;;;;3.87;1.17;;;;;;;;;;5057687;28;20284;-45
2023/10/04 01:00:36;;;;;;;2.70;1.20;;;;;;;;;;5058091;28;20255;-43
2023/10/04 01:03:04;;;;;;;1.57;1.30;;;;;;;;;;5059020;28;20237;-40
2023/10/04 01:05:32;;;;;;;1.27;1.20;;;;;;;;;;5065364;28;20197;-42
2023/10/04 01:08:01;;;;;;;1.47;1.10;;;;;;;;;;5067588;28;20320;-42
2023/10/04 01:10:31;;;;;;;1.30;1.20;;;;;;;;;;5067820;28;20221;-44
2023/10/04 01:12:59;;;;;;;2.60;1.40;;;;;;;;;;5063660;28;20216;-42
2023/10/04 01:15:30;;;;;;;1.67;1.17;;;;;;;;;;5069925;28;20217;-42
2023/10/04 01:17:59;;;;;;;0.80;0.73;;;;;;;;;;5077028;28;20216;-42
2023/10/04 01:20:28;;;;;;;1.80;1.30;;;;;;;;;;5068024;28;20232;-44
2023/10/04 01:23:00;;;;;;;1.03;0.97;;;;;;;;;;5063741;28;20207;-42
2023/10/04 01:25:28;;;;;;;2.13;1.03;;;;;;;;;;5074962;28;20734;-45
2023/10/04 01:27:55;;;;;;;1.37;1.17;;;;;;;;;;5063503;28;20595;-42
2023/10/04 01:30:24;;;;;;;1.43;0.87;;;;;;;;;;5071405;28;20224;-44
2023/10/04 01:32:51;;;;;;;1.03;0.73;;;;;;;;;;5074911;28;20215;-42
2023/10/04 01:35:22;;;;;;;1.13;1.03;;;;;;;;;;5071888;28;20203;-41
2023/10/04 01:37:49;;;;;;;1.73;1.10;;;;;;;;;;5073080;28;20208;-40
2023/10/04 01:40:19;;;;;;;3.03;1.27;;;;;;;;;;5075176;28;20225;-41
2023/10/04 01:42:46;;;;;;;2.70;1.50;;;;;;;;;;5064041;28;20295;-45
2023/10/04 01:45:17;;;;;;;1.40;1.30;;;;;;;;;;5077271;28;20207;-42
2023/10/04 01:47:45;;;;;;;2.43;1.00;;;;;;;;;;5076489;28;20678;-41
2023/10/04 01:50:12;;;;;;;1.90;0.90;;;;;;;;;;5073940;28;20228;-43
2023/10/04 01:52:39;;;;;;;3.03;1.10;;;;;;;;;;5055973;28;20636;-43
2023/10/04 01:55:10;;;;;;;3.17;1.30;;;;;;;;;;5068509;28;20677;-41
2023/10/04 01:57:39;;;;;;;1.47;1.10;;;;;;;;;;5061666;28;20201;-41
2023/10/04 02:00:09;;;;;;;1.27;1.17;;;;;;;;;;5068807;28;20784;-42
2023/10/04 02:02:36;;;;;;;1.87;1.20;;;;;;;;;;5069775;28;20703;-42
2023/10/04 02:05:05;;;;;;;1.40;1.13;;;;;;;;;;5063286;28;20205;-43
2023/10/04 02:07:32;;;;;;;2.83;1.40;;;;;;;;;;5068886;28;20217;-41
2023/10/04 02:10:00;;;;;;;1.63;1.30;;;;;;;;;;5068502;28;20235;-41
2023/10/04 02:12:27;;;;;;;1.33;1.20;;;;;;;;;;5065663;28;20222;-44
2023/10/04 02:14:55;;;;;;;2.90;1.30;;;;;;;;;;5067164;28;20213;-42
2023/10/04 02:17:23;;;;;;;3.10;1.30;;;;;;;;;;5062906;28;20214;-43
2023/10/04 02:19:53;;;;;;;1.50;1.20;;;;;;;;;;5069818;28;20228;-42
2023/10/04 02:22:22;;;;;;;1.63;1.10;;;;;;;;;;5061233;28;20223;-41
2023/10/04 02:24:51;;;;;;;1.60;1.10;;;;;;;;;;5069282;28;20217;-45
2023/10/04 02:27:19;;;;;;;1.47;1.20;;;;;;;;;;5063499;28;20236;-46
2023/10/04 02:29:47;;;;;;;1.47;1.20;;;;;;;;;;5069518;28;20228;-43
2023/10/04 02:32:16;;;;;;;1.63;1.40;;;;;;;;;;5061481;28;20269;-44
2023/10/04 02:34:44;;;;;;;3.83;1.50;;;;;;;;;;5057120;28;20209;-44
2023/10/04 02:37:11;;;;;;;1.40;1.20;;;;;;;;;;5067033;28;20240;-44
2023/10/04 02:39:39;;;;;;;2.10;1.43;;;;;;;;;;5068641;28;20466;-44
2023/10/04 02:42:09;;;;;;;4.37;1.50;;;;;;;;;;5065774;28;20281;-42
2023/10/04 02:44:37;;;;;;;1.87;1.57;;;;;;;;;;5070218;28;20209;-43
2023/10/04 02:47:06;;;;;;;1.00;1.00;;;;;;;;;;5069400;28;20213;-45
2023/10/04 02:49:37;;;;;;;1.70;1.37;;;;;;;;;;5060819;28;20267;-44
2023/10/04 02:52:11;;;;;;;1.37;1.17;;;;;;;;;;5062975;28;20214;-46
2023/10/04 02:54:39;;;;;;;4.20;1.47;;;;;;;;;;5068898;28;20205;-42
2023/10/04 02:57:07;;;;;;;2.03;1.20;;;;;;;;;;5060980;28;20245;-41
2023/10/04 02:59:34;;;;;;;1.33;0.80;;;;;;;;;;5067141;28;20445;-43
2023/10/04 03:02:03;;;;;;;2.23;1.30;;;;;;;;;;5067229;28;20206;-43
2023/10/04 03:04:30;;;;;;;1.53;1.07;;;;;;;;;;5068419;28;20515;-43
2023/10/04 03:06:59;;;;;;;1.43;1.23;;;;;;;;;;5061746;28;20508;-39
2023/10/04 03:09:26;;;;;;;1.77;1.03;;;;;;;;;;5061012;28;20734;-43
2023/10/04 03:11:53;;;;;;;2.03;1.43;;;;;;;;;;5059922;28;20213;-44
2023/10/04 03:14:24;;;;;;;1.87;1.10;;;;;;;;;;5066848;28;20227;-40
2023/10/04 03:16:51;;;;;;;2.80;1.30;;;;;;;;;;5067629;28;20223;-42
2023/10/04 03:19:19;;;;;;;1.77;1.00;;;;;;;;;;5063615;28;20310;-45
2023/10/04 03:21:46;;;;;;;1.50;1.40;;;;;;;;;;5059023;28;20713;-43
2023/10/04 03:24:17;;;;;;;2.10;1.20;;;;;;;;;;5067563;28;20686;-43
2023/10/04 03:26:44;;;;;;;1.30;1.20;;;;;;;;;;5059674;28;20213;-45
2023/10/04 03:29:12;;;;;;;1.37;1.10;;;;;;;;;;5066358;28;20224;-44
2023/10/04 03:31:39;;;;;;;1.67;1.57;;;;;;;;;;5076688;28;20211;-43
2023/10/04 03:34:07;;;;;;;2.00;1.30;;;;;;;;;;5068105;28;20205;-43
2023/10/04 03:36:36;;;;;;;1.37;1.27;;;;;;;;;;5063185;28;20648;-43
2023/10/04 03:39:04;;;;;;;1.37;1.27;;;;;;;;;;5068433;28;20259;-41
2023/10/04 03:41:33;;;;;;;1.57;1.40;;;;;;;;;;5060234;28;20210;-41
2023/10/04 03:44:03;;;;;;;1.10;1.00;;;;;;;;;;5060222;28;20220;-41
2023/10/04 03:46:32;;;;;;;1.17;1.10;;;;;;;;;;5067601;28;20266;-46
2023/10/04 03:49:01;;;;;;;1.40;0.90;;;;;;;;;;5067112;28;20227;-43
2023/10/04 03:51:30;;;;;;;1.83;1.10;;;;;;;;;;5055041;28;20311;-42
2023/10/04 03:53:58;;;;;;;1.27;1.17;;;;;;;;;;5063061;28;20220;-45
2023/10/04 03:56:26;;;;;;;3.97;1.10;;;;;;;;;;5059474;28;20216;-42
2023/10/04 03:58:57;;;;;;;1.83;1.20;;;;;;;;;;5044325;28;20206;-41
2023/10/04 04:01:26;;;;;;;1.30;1.20;;;;;;;;;;5060375;28;20228;-42
2023/10/04 04:03:53;;;;;;;2.63;1.30;;;;;;;;;;5067609;28;20465;-44
2023/10/04 04:06:21;;;;;;;1.20;1.10;;;;;;;;;;5063262;28;20211;-41
2023/10/04 04:08:49;;;;;;;2.00;1.37;;;;;;;;;;5065841;28;20215;-43
2023/10/04 04:11:17;;;;;;;2.20;1.10;;;;;;;;;;5061765;28;20228;-45
2023/10/04 04:13:45;;;;;;;1.40;1.30;;;;;;;;;;5074307;28;20205;-40
2023/10/04 04:16:17;;;;;;;1.60;1.00;;;;;;;;;;5074939;28;20216;-42
2023/10/04 04:18:47;;;;;;;2.90;1.10;;;;;;;;;;5066414;28;20205;-46
2023/10/04 04:21:15;;;;;;;1.50;1.40;;;;;;;;;;5063845;28;20229;-45
2023/10/04 04:23:42;;;;;;;3.13;1.20;;;;;;;;;;5066133;28;20219;-46
2023/10/04 04:26:10;;;;;;;2.10;1.37;;;;;;;;;;5067367;28;20356;-39
2023/10/04 04:28:37;;;;;;;1.23;1.13;;;;;;;;;;5063178;28;20240;-46
2023/10/04 04:31:14;;;;;;;3.87;1.40;;;;;;;;;;5065580;28;20338;-41
2023/10/04 04:33:42;;;;;;;1.73;1.30;;;;;;;;;;5061288;28;20262;-41
2023/10/04 04:36:17;;;;;;;1.40;1.13;;;;;;;;;;5051316;28;20672;-45
2023/10/04 04:38:47;;;;;;;3.93;1.27;;;;;;;;;;5065959;28;20262;-43
2023/10/04 04:41:16;;;;;;;1.80;1.20;;;;;;;;;;5061179;28;20274;-42
2023/10/04 04:43:43;;;;;;;1.20;1.10;;;;;;;;;;5057785;28;20213;-46
2023/10/04 04:46:13;;;;;;;2.77;1.37;;;;;;;;;;5066127;28;20564;-45
2023/10/04 04:48:40;;;;;;;2.13;1.50;;;;;;;;;;5065610;28;20209;-46
2023/10/04 04:51:14;;;;;;;3.83;1.40;;;;;;;;;;5061637;28;20235;-43
2023/10/04 04:53:42;;;;;;;1.63;1.23;;;;;;;;;;5066048;28;20215;-45
2023/10/04 04:56:12;;;;;;;2.07;1.63;;;;;;;;;;5056998;28;20656;-44
2023/10/04 04:58:39;;;;;;;3.60;1.70;;;;;;;;;;5062327;28;20703;-45
2023/10/04 05:01:13;;;;;;;3.47;1.43;;;;;;;;;;5064844;28;20245;-42
2023/10/04 05:03:43;;;;;;;2.10;1.37;;;;;;;;;;5065998;28;20541;-40
2023/10/04 05:06:14;;;;;;;1.80;1.40;;;;;;;;;;5056555;28;20210;-45
2023/10/04 05:08:41;;;;;;;1.80;1.50;;;;;;;;;;5058265;28;20197;-43
2023/10/04 05:11:09;;;;;;;1.20;1.07;;;;;;;;;;5054677;28;20231;-43
2023/10/04 05:13:36;;;;;;;1.10;1.10;;;;;;;;;;5064942;28;20205;-44
2023/10/04 05:16:04;;;;;;;2.17;1.43;;;;;;;;;;5066457;28;20209;-43
2023/10/04 05:18:32;;;;;;;2.47;1.57;;;;;;;;;;5062131;28;20209;-43
2023/10/04 05:21:00;;;;;;;1.20;1.10;;;;;;;;;;5057374;28;20303;-45
2023/10/04 05:23:30;;;;;;;1.27;1.17;;;;;;;;;;5065685;28;20282;-41
2023/10/04 05:25:57;;;;;;;1.93;1.23;;;;;;;;;;5058910;28;20209;-40
2023/10/04 05:28:25;;;;;;;3.20;1.07;;;;;;;;;;5063701;28;20292;-43
2023/10/04 05:30:52;;;;;;;1.20;1.10;;;;;;;;;;5066477;28;20233;-44
2023/10/04 05:33:20;;;;;;;1.23;1.10;;;;;;;;;;5062882;28;20202;-46
2023/10/04 05:35:51;;;;;;;1.67;1.37;;;;;;;;;;5063787;28;20709;-44
2023/10/04 05:38:19;;;;;;;2.10;1.43;;;;;;;;;;5068523;28;20202;-43
2023/10/04 05:40:47;;;;;;;1.30;1.20;;;;;;;;;;5065943;28;20220;-41
2023/10/04 05:43:15;;;;;;;1.40;1.10;;;;;;;;;;5061842;28;20566;-46
2023/10/04 05:45:43;;;;;;;1.37;1.27;;;;;;;;;;5069231;28;20208;-45
2023/10/04 05:48:10;;;;;;;1.03;1.03;;;;;;;;;;5068308;28;20826;-43
2023/10/04 05:50:38;;;;;;;1.00;1.00;;;;;;;;;;5064922;28;20236;-42
2023/10/04 05:53:06;;;;;;;4.03;1.07;;;;;;;;;;5059030;28;20298;-39
2023/10/04 05:55:34;;;;;;;1.03;0.80;;;;;;;;;;5068994;28;20239;-42
2023/10/04 05:58:06;;;;;;;1.87;1.10;;;;;;;;;;5064005;28;20201;-44
2023/10/04 06:00:34;;;;;;;1.10;1.03;;;;;;;;;;5068459;28;20237;-43
2023/10/04 06:03:04;;;;;;;0.67;0.67;;;;;;;;;;5069555;28;20201;-42
2023/10/04 06:05:34;;;;;;;0.83;0.83;;;;;;;;;;5061325;28;20213;-41
2023/10/04 06:08:05;;;;;;;0.60;0.60;;;;;;;;;;5065427;28;20201;-42
2023/10/04 06:10:32;;;;;;;0.70;0.70;;;;;;;;;;5068200;28;20228;-45
2023/10/04 06:13:00;;;;;;;0.50;0.50;;;;;;;;;;5061102;28;20839;-43
2023/10/04 06:15:29;;;;;;;0.77;0.77;;;;;;;;;;5068151;28;20220;-43
2023/10/04 06:17:57;;;;;;;2.20;0.67;;;;;;;;;;5067952;28;20854;-45
2023/10/04 06:20:25;;;;;;;0.80;0.80;;;;;;;;;;5060725;28;20226;-43
2023/10/04 06:22:57;;;;;;;0.50;0.50;;;;;;;;;;5065483;28;20288;-38
2023/10/04 06:25:25;;;;;;;0.70;0.70;;;;;;;;;;5068970;28;20205;-40
2023/10/04 06:27:53;;;;;;;0.50;0.50;;;;;;;;;;5058370;28;20256;-45
2023/10/04 06:30:24;;;;;;;0.63;0.63;;;;;;;;;;5068478;28;20229;-41
2023/10/04 06:32:53;;;;;;;0.73;0.67;;;;;;;;;;5070059;28;20212;-40
2023/10/04 06:35:22;;;;;;;0.60;0.60;;;;;;;;;;5065738;28;20288;-36
2023/10/04 06:37:50;;;;;;;0.40;0.40;;;;;;;;;;5069435;28;20296;-43
2023/10/04 06:40:19;;;;;;;0.57;0.50;;;;;;;;;;5072839;28;20335;-44
2023/10/04 06:42:47;;;;;;;0.70;0.70;;;;;;;;;;5061683;28;20205;-41
2023/10/04 06:45:14;;;;;;;0.60;0.60;;;;;;;;;;5071865;28;20205;-43
2023/10/04 06:47:45;;;;;;;0.50;0.50;;;;;;;;;;5072005;28;20201;-39
2023/10/04 06:50:20;;;;;;;2.97;1.07;;;;;;;;;;5067468;28;20227;-40
2023/10/04 06:52:48;;;;;;;0.90;0.90;;;;;;;;;;5064787;28;20201;-43
2023/10/04 06:55:16;;;;;;;2.13;1.07;;;;;;;;;;5072232;28;20201;-42
2023/10/04 06:57:43;;;;;;;1.73;0.80;;;;;;;;;;5063291;28;20783;-45
2023/10/04 07:00:15;;;;;;;1.23;0.90;;;;;;;;;;5071543;28;20225;-45
2023/10/04 07:02:43;;;;;;;1.10;1.00;;;;;;;;;;5071876;28;20596;-47
2023/10/04 07:05:10;;;;;;;2.80;1.40;;;;;;;;;;5072054;28;20236;-40
2023/10/04 07:07:38;;;;;;;1.07;0.97;;;;;;;;;;5057150;28;20752;-46
2023/10/04 07:10:08;;;;;;;2.07;1.53;;;;;;;;;;5072353;28;20225;-44
2023/10/04 07:12:37;;;;;;;2.80;1.30;;;;;;;;;;5060295;28;20255;-45
2023/10/04 07:15:04;;;;;;;3.43;1.40;;;;;;;;;;5067174;28;20590;-44
2023/10/04 07:17:31;;;;;;;1.77;1.30;;;;;;;;;;5071379;28;20217;-43
2023/10/04 07:19:59;;;;;;;1.90;1.50;;;;;;;;;;5068642;28;20933;-43
2023/10/04 07:22:29;;;;;;;2.47;1.53;;;;;;;;;;5064395;28;20204;-40
2023/10/04 07:24:58;;;;;;;2.57;1.83;;;;;;;;;;5071676;28;20753;-40
2023/10/04 07:27:25;;;;;;;3.83;1.60;;;;;;;;;;5065488;28;20201;-41
2023/10/04 07:29:53;;;;;;;1.70;1.30;;;;;;;;;;5066086;28;20225;-45
2023/10/04 07:32:21;;;;;;;1.40;1.30;;;;;;;;;;5070657;28;20204;-45
2023/10/04 07:34:48;;;;;;;2.70;1.57;;;;;;;;;;5071516;28;20305;-36
2023/10/04 07:37:15;;;;;;;2.43;1.83;;;;;;;;;;5060147;28;20208;-44
2023/10/04 07:39:42;;;;;;;2.33;1.57;;;;;;;;;;5071004;28;20312;-45
2023/10/04 07:42:11;;;;;;;3.53;1.40;;;;;;;;;;5059664;28;20206;-41
2023/10/04 07:44:39;;;;;;;3.13;1.83;;;;;;;;;;5070343;28;20205;-41
2023/10/04 07:47:06;;;;;;;3.07;1.90;;;;;;;;;;5071211;28;20205;-40
2023/10/04 07:49:34;;;;;;;4.30;2.13;;;;;;;;;;5071169;28;20322;-46
2023/10/04 07:52:03;;;;;;;3.67;1.70;;;;;;;;;;5065619;28;20687;-44
2023/10/04 07:54:31;;;;;;;2.23;1.70;;;;;;;;;;5069054;28;20242;-45
2023/10/04 07:56:58;;;;;;;1.70;1.60;;;;;;;;;;5062463;28;20711;-43
2023/10/04 07:59:27;;;;;;;2.40;1.60;;;;;;;;;;5068257;28;20225;-43
2023/10/04 08:01:55;;;;;;;2.50;2.00;;;;;;;;;;5070973;28;20205;-43
2023/10/04 08:04:22;;;;;;;3.40;1.87;;;;;;;;;;5068136;28;20237;-37
2023/10/04 08:06:52;;;;;;;3.43;1.70;;;;;;;;;;5067790;28;20198;-43
2023/10/04 08:09:19;;;;;;;2.83;1.80;;;;;;;;;;5069987;28;20571;-45
2023/10/04 08:11:46;;;;;;;3.67;1.77;;;;;;;;;;5055828;28;20221;-44
2023/10/04 08:14:13;;;;;;;2.93;1.87;;;;;;;;;;5062178;28;20201;-39
2023/10/04 08:16:42;;;;;;;6.60;2.10;;;;;;;;;;5069870;28;20213;-37
2023/10/04 08:19:09;;;;;;;1.73;1.57;;;;;;;;;;5070145;28;20209;-42
2023/10/04 08:21:37;;;;;;;8.57;2.07;;;;;;;;;;5067404;28;20201;-38
2023/10/04 08:24:05;;;;;;;3.83;2.17;;;;;;;;;;5067012;28;20197;-44
2023/10/04 08:26:33;;;;;;;2.60;1.63;;;;;;;;;;5065868;28;20202;-43
2023/10/04 08:29:00;;;;;;;1.97;1.77;;;;;;;;;;5066575;28;20201;-45
2023/10/04 08:31:27;;;;;;;4.20;2.20;;;;;;;;;;5070261;28;20320;-41
2023/10/04 08:33:55;;;;;;;2.93;1.80;;;;;;;;;;5071087;28;20758;-45
2023/10/04 08:36:23;;;;;;;2.17;1.60;;;;;;;;;;5063161;28;20209;-42
2023/10/04 08:38:50;;;;;;;2.30;1.60;;;;;;;;;;5062162;28;20288;-41
2023/10/04 08:41:17;;;;;;;2.73;1.47;;;;;;;;;;5059915;28;20247;-44
2023/10/04 08:43:45;;;;;;;3.13;1.80;;;;;;;;;;5064899;28;20208;-41
2023/10/04 08:46:12;;;;;;;6.10;2.00;;;;;;;;;;5070546;28;20208;-39
2023/10/04 08:48:39;;;;;;;2.73;1.43;;;;;;;;;;5070128;28;20296;-41
2023/10/04 08:51:16;;;;;;;4.80;1.60;;;;;;;;;;5065268;28;20233;-41
2023/10/04 08:53:49;;;;;;;2.57;1.50;;;;;;;;;;5069106;28;20201;-43
2023/10/04 08:56:18;;;;;;;3.87;2.10;;;;;;;;;;5063775;28;20201;-42
2023/10/04 08:58:45;;;;;;;2.40;1.83;;;;;;;;;;5063828;28;20201;-45
2023/10/04 09:01:15;;;;;;;4.03;1.97;;;;;;;;;;5064696;28;20715;-42
2023/10/04 09:03:43;;;;;;;3.67;2.13;;;;;;;;;;5069603;28;20848;-41
2023/10/04 09:06:14;;;;;;;3.03;1.50;;;;;;;;;;5057119;28;20206;-40
2023/10/04 09:08:41;;;;;;;4.13;1.40;;;;;;;;;;5068018;28;20205;-42
2023/10/04 09:11:10;;;;;;;3.53;1.70;;;;;;;;;;5060323;28;20230;-45
2023/10/04 09:13:47;;;;;;;5.73;1.80;;;;;;;;;;5063473;28;20214;-46
2023/10/04 09:16:22;;;;;;;4.13;1.70;;;;;;;;;;5069970;28;20292;-38
2023/10/04 09:18:50;;;;;;;4.13;1.70;;;;;;;;;;5064307;28;20220;-40
2023/10/04 09:21:18;;;;;;;4.03;1.70;;;;;;;;;;5067267;28;20221;-44
2023/10/04 09:23:46;;;;;;;1.37;1.27;;;;;;;;;;5065664;28;20202;-45
2023/10/04 09:26:17;;;;;;;2.67;1.60;;;;;;;;;;5064210;28;20206;-38
2023/10/04 09:28:44;;;;;;;3.23;1.60;;;;;;;;;;5059416;28;20211;-41
2023/10/04 09:31:12;;;;;;;3.27;1.60;;;;;;;;;;5069697;28;20233;-44
2023/10/04 09:33:40;;;;;;;2.67;1.13;;;;;;;;;;5069737;28;20205;-42
2023/10/04 09:36:10;;;;;;;4.17;1.33;;;;;;;;;;5065304;28;20209;-44
2023/10/04 09:38:39;;;;;;;3.47;1.37;;;;;;;;;;5066706;28;20231;-40
2023/10/04 09:41:08;;;;;;;4.80;1.30;;;;;;;;;;5062320;28;20231;-44
2023/10/04 09:43:36;;;;;;;3.63;1.40;;;;;;;;;;5064095;28;20223;-40
2023/10/04 09:46:04;;;;;;;2.70;1.33;;;;;;;;;;5070300;28;20609;-41
2023/10/04 09:48:33;;;;;;;6.60;1.50;;;;;;;;;;5067771;28;20207;-41
2023/10/04 09:51:01;;;;;;;1.63;1.23;;;;;;;;;;5058038;28;20236;-41
2023/10/04 09:53:28;;;;;;;3.20;1.40;;;;;;;;;;5062569;28;20214;-45
2023/10/04 09:56:01;;;;;;;3.20;1.57;;;;;;;;;;5062009;28;20324;-45
2023/10/04 09:58:29;;;;;;;2.93;1.33;;;;;;;;;;5066684;28;20213;-45
2023/10/04 10:00:57;;;;;;;2.93;1.50;;;;;;;;;;5068397;28;20313;-44
2023/10/04 10:03:27;;;;;;;9.80;1.47;;;;;;;;;;5068525;28;20209;-44
2023/10/04 10:05:56;;;;;;;3.53;1.83;;;;;;;;;;5057507;28;20197;-42
2023/10/04 10:08:27;;;;;;;3.90;1.70;;;;;;;;;;5062293;28;20680;-45
2023/10/04 10:10:54;;;;;;;7.90;3.17;;;;;;;;;;5054397;28;20221;-42
2023/10/04 10:13:23;;;;;;;3.23;1.63;;;;;;;;;;5069870;28;20265;-41
2023/10/04 10:15:53;;;;;;;6.00;1.67;;;;;;;;;;5072516;28;20223;-43
2023/10/04 10:18:22;;;;;;;1.10;1.00;;;;;;;;;;5071406;28;20205;-39
2023/10/04 10:20:49;;;;;;;5.47;1.30;;;;;;;;;;5061579;28;20222;-42
2023/10/04 10:23:16;;;;;;;1.67;1.13;;;;;;;;;;5071471;28;20197;-46
2023/10/04 10:25:58;;;;;;;3.20;1.33;;;;;;;;;;5068821;28;20210;-45
2023/10/04 10:28:27;;;;;;;2.73;1.23;;;;;;;;;;5061717;28;20206;-42
2023/10/04 10:31:00;;;;;;;4.37;1.30;;;;;;;;;;5071933;28;20277;-42
2023/10/04 10:33:28;;;;;;;2.47;1.20;;;;;;;;;;5068890;28;20205;-41
2023/10/04 10:36:00;;;;;;;3.13;1.17;;;;;;;;;;5065607;28;20205;-41
2023/10/04 10:38:31;;;;;;;7.17;1.40;;;;;;;;;;5071475;28;20231;-38
2023/10/04 10:40:58;;;;;;;3.13;1.47;;;;;;;;;;5064570;28;20293;-42
2023/10/04 10:43:27;;;;;;;1.53;1.00;;;;;;;;;;5068702;28;20205;-43
2023/10/04 10:45:56;;;;;;;2.67;1.20;;;;;;;;;;5071475;28;20229;-45
2023/10/04 10:48:32;;;;;;;3.80;1.53;;;;;;;;;;5071168;28;20201;-42
2023/10/04 10:50:59;;;;;;;2.30;1.30;;;;;;;;;;5058850;28;20225;-40
2023/10/04 10:53:26;;;;;;;4.20;1.40;;;;;;;;;;5063939;28;20892;-40
2023/10/04 10:55:54;;;;;;;5.10;1.67;;;;;;;;;;5059794;28;20213;-39
2023/10/04 10:58:21;;;;;;;2.70;1.40;;;;;;;;;;5064691;28;20285;-41
2023/10/04 11:00:49;;;;;;;2.23;1.10;;;;;;;;;;5071600;28;20229;-42
2023/10/04 11:03:20;;;;;;;5.13;1.27;;;;;;;;;;5071817;28;20208;-43
2023/10/04 11:05:47;;;;;;;3.97;1.40;;;;;;;;;;5067405;28;20202;-42
2023/10/04 11:08:15;;;;;;;2.67;1.10;;;;;;;;;;5066249;28;20201;-44
2023/10/04 11:10:43;;;;;;;2.90;1.20;;;;;;;;;;5067091;28;20270;-41
2023/10/04 11:13:17;;;;;;;5.37;1.73;;;;;;;;;;5062605;28;20221;-44
2023/10/04 11:15:46;;;;;;;4.50;1.40;;;;;;;;;;5070398;28;20212;-39
2023/10/04 11:18:16;;;;;;;3.73;1.10;;;;;;;;;;5070847;28;20205;-45
2023/10/04 11:20:43;;;;;;;4.53;1.47;;;;;;;;;;5062958;28;20304;-40
2023/10/04 11:23:11;;;;;;;3.20;1.10;;;;;;;;;;5066178;28;20216;-42
2023/10/04 11:25:38;;;;;;;3.03;1.30;;;;;;;;;;5068438;28;20205;-44
2023/10/04 11:28:07;;;;;;;2.73;0.97;;;;;;;;;;5054908;28;20197;-36
2023/10/04 11:30:34;;;;;;;2.77;1.10;;;;;;;;;;5071942;28;20606;-42
2023/10/04 11:33:01;;;;;;;2.40;1.00;;;;;;;;;;5070998;28;20229;-40
2023/10/04 11:35:36;;;;;;;3.80;1.17;;;;;;;;;;5069066;28;20209;-36
2023/10/04 11:38:15;;;;;;;1.80;0.60;;;;;;;;;;5063374;28;20224;-45
2023/10/04 11:40:46;;;;;;;3.97;1.23;;;;;;;;;;5066267;28;20307;-45
2023/10/04 11:43:14;;;;;;;1.77;1.30;;;;;;;;;;5058235;28;20644;-43
2023/10/04 11:45:41;;;;;;;2.73;1.20;;;;;;;;;;5071383;28;20217;-42
2023/10/04 11:48:10;;;;;;;2.47;1.23;;;;;;;;;;5070295;28;20216;-43
2023/10/04 11:50:46;;;;;;;2.37;1.27;;;;;;;;;;5059028;28;20232;-43
2023/10/04 11:53:15;;;;;;;3.53;0.90;;;;;;;;;;5068934;28;20273;-44
2023/10/04 11:55:42;;;;;;;1.37;0.97;;;;;;;;;;5068552;28;20244;-41
2023/10/04 11:58:11;;;;;;;4.27;1.37;;;;;;;;;;5060792;28;20201;-43
2023/10/04 12:00:38;;;;;;;1.67;0.90;;;;;;;;;;5069793;28;20249;-44
2023/10/04 12:03:09;;;;;;;4.03;1.43;;;;;;;;;;5070737;28;20202;-43
2023/10/04 12:05:36;;;;;;;2.20;1.10;;;;;;;;;;5059827;28;20205;-45
2023/10/04 12:08:06;;;;;;;2.37;1.27;;;;;;;;;;5069497;28;20201;-45
2023/10/04 12:10:34;;;;;;;2.03;1.23;;;;;;;;;;5070061;28;20232;-42
2023/10/04 12:13:01;;;;;;;5.90;1.50;;;;;;;;;;5052175;28;20282;-42
2023/10/04 12:15:29;;;;;;;2.07;1.03;;;;;;;;;;5065067;28;20295;-41
2023/10/04 12:17:56;;;;;;;2.70;1.47;;;;;;;;;;5069810;28;20210;-42
2023/10/04 12:20:24;;;;;;;4.37;1.23;;;;;;;;;;5062147;28;20221;-44
2023/10/04 12:22:51;;;;;;;2.07;1.20;;;;;;;;;;5062787;28;20215;-44
2023/10/04 12:25:21;;;;;;;3.90;1.30;;;;;;;;;;5070371;28;20288;-45
2023/10/04 12:27:50;;;;;;;4.20;1.50;;;;;;;;;;5057851;28;20209;-41
2023/10/04 12:30:18;;;;;;;4.07;1.17;;;;;;;;;;5069458;28;20906;-39
2023/10/04 12:32:47;;;;;;;1.70;1.20;;;;;;;;;;5069517;28;20287;-41
2023/10/04 12:35:14;;;;;;;1.93;1.23;;;;;;;;;;5058971;28;20212;-41
2023/10/04 12:37:41;;;;;;;2.23;1.00;;;;;;;;;;5069429;28;20630;-43
2023/10/04 12:40:17;;;;;;;2.47;1.20;;;;;;;;;;5070616;28;20225;-42
2023/10/04 12:42:48;;;;;;;3.00;1.20;;;;;;;;;;5052112;28;20296;-43
2023/10/04 12:45:16;;;;;;;2.77;1.50;;;;;;;;;;5069861;28;20225;-45
2023/10/04 12:47:43;;;;;;;2.77;1.20;;;;;;;;;;5068546;28;20215;-43
2023/10/04 12:50:14;;;;;;;2.43;1.17;;;;;;;;;;5068448;28;20581;-44
2023/10/04 12:52:41;;;;;;;3.40;0.93;;;;;;;;;;5059084;28;20214;-40
2023/10/04 12:55:11;;;;;;;3.23;1.20;;;;;;;;;;5069102;28;20296;-45
2023/10/04 12:57:38;;;;;;;2.40;1.17;;;;;;;;;;5050743;28;20216;-48
2023/10/04 13:00:14;;;;;;;1.60;1.03;;;;;;;;;;5067992;28;20253;-42
2023/10/04 13:02:41;;;;;;;2.23;1.13;;;;;;;;;;5069082;28;20205;-41
2023/10/04 13:05:10;;;;;;;3.43;1.20;;;;;;;;;;5062629;28;20209;-42
2023/10/04 13:07:38;;;;;;;1.23;1.00;;;;;;;;;;5068318;28;20205;-44
2023/10/04 13:10:09;;;;;;;1.20;1.10;;;;;;;;;;5061354;28;20243;-43
2023/10/04 13:12:37;;;;;;;4.37;1.33;;;;;;;;;;5059453;28;20217;-43
2023/10/04 13:15:05;;;;;;;1.13;1.00;;;;;;;;;;5067926;28;20216;-46
2023/10/04 13:17:33;;;;;;;3.10;1.20;;;;;;;;;;5069023;28;20249;-43
2023/10/04 13:20:01;;;;;;;1.50;1.07;;;;;;;;;;5065591;28;20226;-45
2023/10/04 13:22:29;;;;;;;2.67;1.10;;;;;;;;;;5061358;28;20205;-43
2023/10/04 13:24:56;;;;;;;3.17;1.40;;;;;;;;;;5068128;28;20209;-41
2023/10/04 13:27:23;;;;;;;4.00;1.20;;;;;;;;;;5053106;28;20202;-41
2023/10/04 13:29:51;;;;;;;1.77;1.00;;;;;;;;;;5066277;28;20312;-45
2023/10/04 13:32:19;;;;;;;2.17;1.03;;;;;;;;;;5068963;28;20569;-40
2023/10/04 13:34:47;;;;;;;1.63;0.90;;;;;;;;;;5065496;28;20202;-42
2023/10/04 13:37:14;;;;;;;3.43;1.17;;;;;;;;;;5063231;28;20212;-45
2023/10/04 13:39:42;;;;;;;2.30;1.30;;;;;;;;;;5068812;28;20282;-40
2023/10/04 13:42:10;;;;;;;1.43;0.90;;;;;;;;;;5058072;28;20208;-44
2023/10/04 13:44:37;;;;;;;1.30;0.80;;;;;;;;;;5061283;28;20212;-44
2023/10/04 13:47:05;;;;;;;1.97;1.17;;;;;;;;;;5072637;28;20262;-41
2023/10/04 13:49:32;;;;;;;2.97;1.53;;;;;;;;;;5069075;28;20235;-41
2023/10/04 13:52:01;;;;;;;2.63;1.37;;;;;;;;;;5061476;28;20252;-44
2023/10/04 13:54:32;;;;;;;2.53;1.30;;;;;;;;;;5058363;28;20205;-43
2023/10/04 13:56:59;;;;;;;7.43;1.17;;;;;;;;;;5060619;28;20208;-44
2023/10/04 13:59:29;;;;;;;2.00;0.90;;;;;;;;;;5076287;28;20221;-43
2023/10/04 14:01:56;;;;;;;2.93;1.47;;;;;;;;;;5073248;28;20213;-41
2023/10/04 14:04:24;;;;;;;2.13;1.17;;;;;;;;;;5071928;28;20213;-44
2023/10/04 14:06:51;;;;;;;4.17;1.20;;;;;;;;;;5068365;28;20303;-43
2023/10/04 14:09:22;;;;;;;2.23;1.00;;;;;;;;;;5072535;28;20262;-43
2023/10/04 14:11:51;;;;;;;2.50;1.37;;;;;;;;;;5059660;28;20208;-44
2023/10/04 14:14:19;;;;;;;1.53;1.10;;;;;;;;;;5071760;28;20298;-42
2023/10/04 14:16:47;;;;;;;4.37;1.30;;;;;;;;;;5072532;28;20216;-45
2023/10/04 14:19:15;;;;;;;3.13;1.10;;;;;;;;;;5072584;28;20201;-44
2023/10/04 14:21:42;;;;;;;1.50;1.03;;;;;;;;;;5063667;28;20248;-43
2023/10/04 14:24:10;;;;;;;2.40;1.80;;;;;;;;;;5064506;28;20279;-41
2023/10/04 14:26:42;;;;;;;0.90;0.80;;;;;;;;;;5063654;28;20274;-40
2023/10/04 14:29:11;;;;;;;2.47;1.27;;;;;;;;;;5061745;28;20288;-42
2023/10/04 14:31:38;;;;;;;3.63;1.13;;;;;;;;;;5067626;28;20233;-44
2023/10/04 14:34:05;;;;;;;3.30;1.43;;;;;;;;;;5071886;28;20227;-38
2023/10/04 14:36:35;;;;;;;1.97;1.07;;;;;;;;;;5072181;28;20209;-44
2023/10/04 14:39:08;;;;;;;1.87;1.03;;;;;;;;;;5066436;28;20217;-46
2023/10/04 14:41:35;;;;;;;1.23;0.90;;;;;;;;;;5064520;28;20228;-45
2023/10/04 14:44:03;;;;;;;2.43;0.90;;;;;;;;;;5070964;28;20209;-45
2023/10/04 14:46:32;;;;;;;2.53;1.00;;;;;;;;;;5071163;28;20727;-43
2023/10/04 14:48:59;;;;;;;2.93;1.50;;;;;;;;;;5071959;28;20239;-43
2023/10/04 14:51:26;;;;;;;1.67;1.03;;;;;;;;;;5061987;28;20225;-44